KSZT

Sandpoint Airport

Sandpoint, Idaho, USA
METAR KSZT 200535Z AUTO 29003KT 10SM CLR 13/11 A3012 RMK AO2
Observed Flight Rules
Jun-20 @ 05:35 UTC (9 minutes ago) Visual Flight Rules
Wind Visibility Clouds
290° at 3 knots 10 miles
  • Clear skies
Temperatures Readings
Current 13°C / 55°F
Dewpoint 11°C / 52°F
Humidity 88%
Altimeter 30.12" Hg
Pressure 1020 hPa
Elevation 648
METAR KSZT 200535Z AUTO 29003KT 10SM CLR 13/11 A3012 RMK AO2
Observed Flight Rules
Jun-20 @ 05:35 UTC
(9 minutes ago)
VFR
Wind Visibility
290° at 3 knots 10 miles
Clouds
  • Clear skies
Temperature Dewpoint
13°C / 55°F 11°C / 52°F
Humidity Altimeter Pressure
88% 30.12" Hg 1020 hPa